Terminal Aerodrome Forecast
Issued by NWS Wakefield, VA

Home | Current Version | Previous Version | Text Only | Print | Product List | Glossary On
Versions: 1 2 3 4 5 6 7 8 9 10 11 12 13 14 15
000
FTUS41 KAKQ 211700 RRA
TAFORF
TAF
KORF 211743Z 2118/2218 25007KT P6SM SCT100 BKN250
     FM220300 32004KT P6SM BKN050
     FM221000 32008KT P6SM BKN020
     FM221500 34012G16KT P6SM BKN020=

USA.gov is the U.S. government's official web portal to all federal, state and local government web resources and services.